AUA1503 LOWW-LKPR
Flight info
| Callsign | AUA1503 |
|---|---|
| Flight time | 0h 33m |
| Altitude | 22000 |
| Route | LANUX DCT VLM |
| Aircraft | A388/J-SADE2E3FGHIJ3J4J5M1RWXY/LB1D1 |
Departure
| Time | 2026-04-22 18:12 |
|---|---|
| Airport | Vienna International Airport (LOWW) |
Arrival
| Time | 2026-04-22 18:45 |
|---|---|
| Airport | Václav Havel Airport Prague (LKPR) |
| Time | Latitude | Longitude | Altitude | Speed | Heading |
|---|---|---|---|---|---|
| 2026-04-22 17:38 | 48.11553 | 16.57225 | 627 ft | 0 kts | 24° |
| 2026-04-22 18:01 | 48.11577 | 16.57241 | 626 ft | 7 kts | 24° |
| 2026-04-22 18:01 | 48.11619 | 16.57287 | 622 ft | 5 kts | 68° |
| 2026-04-22 18:01 | 48.11614 | 16.57342 | 624 ft | 7 kts | 110° |
| 2026-04-22 18:02 | 48.11590 | 16.57417 | 619 ft | 9 kts | 127° |
| 2026-04-22 18:02 | 48.11530 | 16.57468 | 619 ft | 11 kts | 178° |
| 2026-04-22 18:02 | 48.11452 | 16.57431 | 629 ft | 12 kts | 208° |
| 2026-04-22 18:02 | 48.11377 | 16.57374 | 626 ft | 12 kts | 205° |
| 2026-04-22 18:03 | 48.11301 | 16.57321 | 632 ft | 13 kts | 205° |
| 2026-04-22 18:03 | 48.11224 | 16.57291 | 630 ft | 10 kts | 160° |
| 2026-04-22 18:03 | 48.11175 | 16.57380 | 632 ft | 14 kts | 119° |
| 2026-04-22 18:03 | 48.11131 | 16.57506 | 627 ft | 10 kts | 115° |
| 2026-04-22 18:04 | 48.11120 | 16.57544 | 632 ft | 2 kts | 114° |
| 2026-04-22 18:04 | 48.11119 | 16.57545 | 632 ft | 0 kts | 114° |
| 2026-04-22 18:05 | 48.11113 | 16.57570 | 626 ft | 7 kts | 113° |
| 2026-04-22 18:05 | 48.11077 | 16.57635 | 633 ft | 9 kts | 155° |
| 2026-04-22 18:05 | 48.11055 | 16.57642 | 625 ft | 0 kts | 189° |
| 2026-04-22 18:06 | 48.11044 | 16.57639 | 624 ft | 5 kts | 194° |
| 2026-04-22 18:06 | 48.11042 | 16.57638 | 623 ft | 0 kts | 195° |
| 2026-04-22 18:08 | 48.11040 | 16.57638 | 622 ft | 2 kts | 195° |
| 2026-04-22 18:09 | 48.11037 | 16.57636 | 622 ft | 0 kts | 196° |
| 2026-04-22 18:10 | 48.11014 | 16.57624 | 631 ft | 6 kts | 201° |
| 2026-04-22 18:10 | 48.10968 | 16.57595 | 637 ft | 8 kts | 206° |
| 2026-04-22 18:11 | 48.10925 | 16.57549 | 638 ft | 6 kts | 255° |
| 2026-04-22 18:11 | 48.10930 | 16.57485 | 631 ft | 7 kts | 290° |
| 2026-04-22 18:11 | 48.10993 | 16.57278 | 631 ft | 57 kts | 296° |
| 2026-04-22 18:11 | 48.11278 | 16.56410 | 628 ft | 125 kts | 295° |
| 2026-04-22 18:12 | 48.11752 | 16.54973 | 672 ft | 173 kts | 298° |
| 2026-04-22 18:12 | 48.12263 | 16.53410 | 1513 ft | 162 kts | 296° |
| 2026-04-22 18:12 | 48.12412 | 16.52309 | 2056 ft | 167 kts | 274° |
| 2026-04-22 18:12 | 48.12030 | 16.49950 | 2813 ft | 184 kts | 261° |
| 2026-04-22 18:13 | 48.11703 | 16.48007 | 3018 ft | 200 kts | 267° |
| 2026-04-22 18:13 | 48.11699 | 16.45838 | 3354 ft | 214 kts | 285° |
| 2026-04-22 18:13 | 48.11978 | 16.43598 | 3904 ft | 229 kts | 285° |
| 2026-04-22 18:13 | 48.12252 | 16.41143 | 4334 ft | 249 kts | 283° |
| 2026-04-22 18:14 | 48.12524 | 16.38514 | 5005 ft | 259 kts | 283° |
| 2026-04-22 18:14 | 48.12793 | 16.35838 | 5870 ft | 260 kts | 283° |
| 2026-04-22 18:14 | 48.13066 | 16.33149 | 6718 ft | 264 kts | 283° |
| 2026-04-22 18:14 | 48.13348 | 16.30414 | 7495 ft | 268 kts | 283° |
| 2026-04-22 18:15 | 48.13637 | 16.27641 | 8285 ft | 271 kts | 283° |
| 2026-04-22 18:15 | 48.13930 | 16.24826 | 9054 ft | 275 kts | 283° |
| 2026-04-22 18:15 | 48.14387 | 16.22042 | 9785 ft | 276 kts | 300° |
| 2026-04-22 18:15 | 48.15553 | 16.19813 | 10422 ft | 277 kts | 324° |
| 2026-04-22 18:16 | 48.17270 | 16.18345 | 10608 ft | 295 kts | 336° |
| 2026-04-22 18:16 | 48.19187 | 16.16985 | 10825 ft | 314 kts | 336° |
| 2026-04-22 18:16 | 48.21149 | 16.15472 | 11400 ft | 320 kts | 334° |
| 2026-04-22 18:16 | 48.23124 | 16.13893 | 12033 ft | 323 kts | 334° |
| 2026-04-22 18:17 | 48.25120 | 16.12296 | 12704 ft | 327 kts | 335° |
| 2026-04-22 18:17 | 48.27144 | 16.10690 | 13378 ft | 330 kts | 335° |
| 2026-04-22 18:17 | 48.29188 | 16.09077 | 14025 ft | 334 kts | 335° |
| 2026-04-22 18:17 | 48.31256 | 16.07449 | 14602 ft | 337 kts | 335° |
| 2026-04-22 18:18 | 48.33310 | 16.05831 | 15192 ft | 339 kts | 336° |
| 2026-04-22 18:18 | 48.35412 | 16.04176 | 15778 ft | 343 kts | 336° |
| 2026-04-22 18:18 | 48.37535 | 16.02503 | 16343 ft | 346 kts | 336° |
| 2026-04-22 18:18 | 48.39677 | 16.00813 | 16919 ft | 349 kts | 336° |
| 2026-04-22 18:19 | 48.41838 | 15.99106 | 17452 ft | 353 kts | 336° |
| 2026-04-22 18:19 | 48.44022 | 15.97380 | 18030 ft | 356 kts | 336° |
| 2026-04-22 18:19 | 48.46221 | 15.95640 | 18563 ft | 359 kts | 336° |
| 2026-04-22 18:19 | 48.48438 | 15.93883 | 19011 ft | 362 kts | 336° |
| 2026-04-22 18:20 | 48.50679 | 15.92106 | 19484 ft | 365 kts | 336° |
| 2026-04-22 18:20 | 48.52935 | 15.90315 | 19938 ft | 368 kts | 336° |
| 2026-04-22 18:20 | 48.55210 | 15.88507 | 20389 ft | 371 kts | 336° |
| 2026-04-22 18:20 | 48.57502 | 15.86684 | 20833 ft | 374 kts | 336° |
| 2026-04-22 18:21 | 48.59816 | 15.84841 | 21269 ft | 377 kts | 337° |
| 2026-04-22 18:21 | 48.62144 | 15.82986 | 21705 ft | 380 kts | 337° |
| 2026-04-22 18:21 | 48.64493 | 15.81111 | 22130 ft | 384 kts | 337° |
| 2026-04-22 18:21 | 48.66884 | 15.79204 | 22233 ft | 394 kts | 337° |
| 2026-04-22 18:22 | 48.69354 | 15.77236 | 22231 ft | 408 kts | 337° |
| 2026-04-22 18:22 | 48.71885 | 15.75212 | 22228 ft | 414 kts | 337° |
| 2026-04-22 18:22 | 48.74428 | 15.73169 | 22228 ft | 413 kts | 337° |
| 2026-04-22 18:22 | 48.76959 | 15.71132 | 22235 ft | 412 kts | 337° |
| 2026-04-22 18:23 | 48.79496 | 15.69091 | 22234 ft | 412 kts | 337° |
| 2026-04-22 18:23 | 48.82027 | 15.67054 | 22235 ft | 412 kts | 337° |
| 2026-04-22 18:23 | 48.84563 | 15.65011 | 22235 ft | 412 kts | 337° |
| 2026-04-22 18:24 | 48.89652 | 15.60995 | 22237 ft | 410 kts | 341° |
| 2026-04-22 18:24 | 48.92268 | 15.59290 | 22242 ft | 410 kts | 342° |
| 2026-04-22 18:24 | 48.97508 | 15.55832 | 22244 ft | 410 kts | 341° |
| 2026-04-22 18:25 | 49.00127 | 15.54092 | 22244 ft | 411 kts | 341° |
| 2026-04-22 18:25 | 49.02703 | 15.52374 | 22239 ft | 396 kts | 341° |
| 2026-04-22 18:25 | 49.05167 | 15.50723 | 22246 ft | 378 kts | 341° |
| 2026-04-22 18:26 | 49.09847 | 15.47602 | 22246 ft | 364 kts | 342° |
| 2026-04-22 18:26 | 49.12177 | 15.46057 | 22244 ft | 365 kts | 342° |
| 2026-04-22 18:26 | 49.14509 | 15.44506 | 22243 ft | 366 kts | 342° |
| 2026-04-22 18:26 | 49.16841 | 15.42949 | 22241 ft | 365 kts | 342° |
| 2026-04-22 18:27 | 49.19171 | 15.41390 | 22243 ft | 366 kts | 342° |
| 2026-04-22 18:27 | 49.21501 | 15.39830 | 22260 ft | 366 kts | 342° |
| 2026-04-22 18:27 | 49.23834 | 15.38265 | 22255 ft | 366 kts | 342° |
| 2026-04-22 18:27 | 49.26165 | 15.36700 | 22261 ft | 366 kts | 342° |
| 2026-04-22 18:28 | 49.28496 | 15.35133 | 22252 ft | 366 kts | 342° |
| 2026-04-22 18:28 | 49.30793 | 15.33588 | 22182 ft | 364 kts | 342° |
| 2026-04-22 18:28 | 49.33135 | 15.32009 | 21859 ft | 362 kts | 342° |
| 2026-04-22 18:28 | 49.35430 | 15.30462 | 21429 ft | 359 kts | 341° |
| 2026-04-22 18:29 | 49.37713 | 15.28922 | 20929 ft | 357 kts | 341° |
| 2026-04-22 18:29 | 49.39980 | 15.27390 | 20493 ft | 354 kts | 341° |
| 2026-04-22 18:29 | 49.42228 | 15.25870 | 20048 ft | 352 kts | 341° |
| 2026-04-22 18:29 | 49.44430 | 15.24375 | 19898 ft | 340 kts | 341° |
| 2026-04-22 18:30 | 49.46560 | 15.22926 | 19808 ft | 329 kts | 341° |
| 2026-04-22 18:30 | 49.50640 | 15.20157 | 19378 ft | 316 kts | 341° |
| 2026-04-22 18:30 | 49.52616 | 15.18819 | 19046 ft | 313 kts | 341° |
| 2026-04-22 18:31 | 49.54604 | 15.17470 | 18718 ft | 312 kts | 341° |
| 2026-04-22 18:31 | 49.56610 | 15.16107 | 18369 ft | 310 kts | 341° |
| 2026-04-22 18:31 | 49.58577 | 15.14769 | 17994 ft | 308 kts | 341° |
| 2026-04-22 18:31 | 49.60504 | 15.13455 | 17655 ft | 306 kts | 341° |
| 2026-04-22 18:32 | 49.62441 | 15.12134 | 17278 ft | 304 kts | 341° |
| 2026-04-22 18:32 | 49.64366 | 15.10819 | 16924 ft | 301 kts | 341° |
| 2026-04-22 18:32 | 49.66278 | 15.09513 | 16568 ft | 300 kts | 341° |
| 2026-04-22 18:32 | 49.68172 | 15.08217 | 16306 ft | 294 kts | 341° |
| 2026-04-22 18:33 | 49.69932 | 15.06719 | 16133 ft | 284 kts | 329° |
| 2026-04-22 18:33 | 49.71390 | 15.04728 | 15813 ft | 280 kts | 318° |
| 2026-04-22 18:33 | 49.72603 | 15.02346 | 15368 ft | 283 kts | 313° |
| 2026-04-22 18:33 | 49.73790 | 14.99941 | 15036 ft | 280 kts | 313° |
| 2026-04-22 18:34 | 49.74980 | 14.97570 | 14690 ft | 278 kts | 314° |
| 2026-04-22 18:34 | 49.76161 | 14.95219 | 14365 ft | 276 kts | 314° |
| 2026-04-22 18:34 | 49.77334 | 14.92883 | 14025 ft | 274 kts | 314° |
| 2026-04-22 18:34 | 49.78495 | 14.90562 | 13650 ft | 272 kts | 313° |
| 2026-04-22 18:35 | 49.79646 | 14.88261 | 13280 ft | 269 kts | 313° |
| 2026-04-22 18:35 | 49.80786 | 14.85971 | 12921 ft | 268 kts | 313° |
| 2026-04-22 18:35 | 49.81911 | 14.83692 | 12541 ft | 266 kts | 313° |
| 2026-04-22 18:35 | 49.83027 | 14.81425 | 12204 ft | 264 kts | 313° |
| 2026-04-22 18:36 | 49.84133 | 14.79174 | 11824 ft | 262 kts | 313° |
| 2026-04-22 18:36 | 49.85231 | 14.76941 | 11529 ft | 256 kts | 313° |
| 2026-04-22 18:36 | 49.86276 | 14.74806 | 11359 ft | 241 kts | 313° |
| 2026-04-22 18:36 | 49.87254 | 14.72805 | 11186 ft | 226 kts | 313° |
| 2026-04-22 18:37 | 49.88197 | 14.70886 | 10866 ft | 220 kts | 313° |
| 2026-04-22 18:37 | 49.89099 | 14.69053 | 10237 ft | 214 kts | 313° |
| 2026-04-22 18:37 | 49.89701 | 14.67838 | 9717 ft | 215 kts | 313° |
| 2026-04-22 18:37 | 49.90911 | 14.65393 | 8905 ft | 207 kts | 312° |
| 2026-04-22 18:38 | 49.91748 | 14.63678 | 8535 ft | 194 kts | 312° |
| 2026-04-22 18:38 | 49.92562 | 14.62020 | 7991 ft | 193 kts | 312° |
| 2026-04-22 18:38 | 49.93376 | 14.60366 | 7376 ft | 193 kts | 312° |
| 2026-04-22 18:39 | 49.94888 | 14.57266 | 6701 ft | 161 kts | 312° |
| 2026-04-22 18:39 | 49.95573 | 14.55869 | 5996 ft | 164 kts | 313° |
| 2026-04-22 18:39 | 49.96257 | 14.54472 | 5369 ft | 160 kts | 312° |
| 2026-04-22 18:39 | 49.96887 | 14.53163 | 4989 ft | 145 kts | 312° |
| 2026-04-22 18:40 | 49.97484 | 14.51922 | 4492 ft | 142 kts | 312° |
| 2026-04-22 18:40 | 49.98072 | 14.50706 | 4063 ft | 140 kts | 312° |
| 2026-04-22 18:40 | 49.98460 | 14.49904 | 3973 ft | 139 kts | 311° |
| 2026-04-22 18:40 | 49.99045 | 14.48699 | 4005 ft | 141 kts | 312° |
| 2026-04-22 18:41 | 49.99639 | 14.47487 | 3999 ft | 141 kts | 312° |
| 2026-04-22 18:41 | 50.00228 | 14.46285 | 4004 ft | 140 kts | 312° |
| 2026-04-22 18:41 | 50.00815 | 14.45086 | 4002 ft | 140 kts | 312° |
| 2026-04-22 18:41 | 50.01403 | 14.43881 | 3999 ft | 140 kts | 311° |
| 2026-04-22 18:42 | 50.01991 | 14.42672 | 4001 ft | 140 kts | 311° |
| 2026-04-22 18:42 | 50.02580 | 14.41461 | 4004 ft | 140 kts | 311° |
| 2026-04-22 18:42 | 50.03171 | 14.40253 | 3997 ft | 140 kts | 312° |
| 2026-04-22 18:42 | 50.03776 | 14.39037 | 3692 ft | 144 kts | 311° |
| 2026-04-22 18:43 | 50.04365 | 14.37812 | 3244 ft | 144 kts | 310° |
| 2026-04-22 18:43 | 50.04961 | 14.36583 | 2794 ft | 139 kts | 310° |
| 2026-04-22 18:43 | 50.05543 | 14.35386 | 2480 ft | 138 kts | 312° |
| 2026-04-22 18:43 | 50.06118 | 14.34198 | 2306 ft | 138 kts | 310° |
| 2026-04-22 18:44 | 50.06691 | 14.33016 | 2102 ft | 136 kts | 311° |
| 2026-04-22 18:44 | 50.07260 | 14.31842 | 1899 ft | 137 kts | 309° |
| 2026-04-22 18:44 | 50.07851 | 14.30651 | 1645 ft | 140 kts | 309° |
| 2026-04-22 18:44 | 50.08425 | 14.29445 | 1427 ft | 137 kts | 308° |
| 2026-04-22 18:45 | 50.08995 | 14.28256 | 1287 ft | 137 kts | 309° |
| 2026-04-22 18:45 | 50.09500 | 14.27220 | 1221 ft | 82 kts | 307° |
| 2026-04-22 18:45 | 50.09720 | 14.26771 | 1216 ft | 42 kts | 306° |
| 2026-04-22 18:45 | 50.09885 | 14.26430 | 1204 ft | 38 kts | 306° |
| 2026-04-22 18:46 | 50.10035 | 14.26118 | 1193 ft | 35 kts | 306° |
| 2026-04-22 18:46 | 50.10179 | 14.25836 | 1189 ft | 31 kts | 316° |
| 2026-04-22 18:46 | 50.10344 | 14.25662 | 1189 ft | 27 kts | 348° |
| 2026-04-22 18:46 | 50.10410 | 14.25658 | 1189 ft | 0 kts | 4° |
| 2026-04-22 18:47 | 50.10412 | 14.25658 | 1189 ft | 2 kts | 4° |
| 2026-04-22 18:47 | 50.10446 | 14.25665 | 1189 ft | 12 kts | 17° |
| 2026-04-22 18:48 | 50.10493 | 14.25769 | 1189 ft | 13 kts | 86° |
| 2026-04-22 18:48 | 50.10510 | 14.25910 | 1192 ft | 13 kts | 79° |
| 2026-04-22 18:48 | 50.10529 | 14.26050 | 1194 ft | 14 kts | 72° |
| 2026-04-22 18:48 | 50.10581 | 14.26187 | 1191 ft | 13 kts | 44° |
| 2026-04-22 18:49 | 50.10594 | 14.26202 | 1190 ft | 0 kts | 32° |
| 2026-04-22 18:49 | 50.10602 | 14.26209 | 1190 ft | 0 kts | 31° |